Airfield :
LOGIN :

Register | Disclaimer

   EN    FR    IT 

 










Legend :    VFR   Marginal VFR   IFR   Intensive IFR   Very Intensive IFR
Visi :
Ceiling :
>= 8 km
>= 3000ft
5 to 8 km
1000 to 3000 ft
1500m to 5 km
500 to 1000 ft
800 to 1500m
200 to 500 ft
< 800m
< 200 ft
Symbols :   Thunderstorms  Fog  Heavy snow  Heavy precipitations  Wind > 20 kt
SIGMETs :     Misc.  Thunderstorms  Icing  Turbulence  Mountain Waves  Volcanic Ashes






- Airport Elevation : 412 ft
- IATA code : ORE


LFOJ - Orleans

CURRENT METAR :
  • 232300Z AUTO 11005KT CAVOK 05/03 Q1024 NOSIG

EXPIRED METARs :
  • 232230Z AUTO 10006KT CAVOK 04/02 Q1024 NOSIG
  • 232200Z AUTO 08003KT CAVOK 04/03 Q1024 NOSIG
  • 232130Z AUTO 09003KT CAVOK 04/03 Q1025 NOSIG
  • 232100Z AUTO 06002KT CAVOK 05/03 Q1025 NOSIG
  • 232030Z AUTO 07002KT CAVOK 05/04 Q1025 NOSIG

TAF AMD TAF LFOJ
Valid from the 23 at 22:00 until the 24 at 21:00 UTC


232205Z 2322/2421 09003KT 9999 BKN045 TX17/2414Z TN01/2405Z
BECMG 2409/2411 19010KT



MET'MAP, your aeronautical weather chart ! - Copyright ORBIFLY December 2007 - Disclaimer

ORBIFLY MET'MAP TEAM :

Programming & Development : Alexandra Zaïnal
Concept & original design : Baudouin d'Aumeries
Assistance for programming : Marc-Olivier Méhu
Technical & hardware support : Manuel Goepfert

Contact : metmap@orbifly.com




SOURCES & CREDITS :

   NOAA